Time;durP1;ratioP1;P1;durP2;ratioP2;P2;SDS_P1;SDS_P2;PMS_P1;PMS_P2;Temp;Humidity;BMP_temperature;BMP_pressure;BME280_temperature;BME280_humidity;BME280_pressure;Samples;Min_cycle;Max_cycle;Signal;HPM_P1;HPM_P2
2022/08/03 00:02:05;;;;;;;2.10;2.00;;;;;;;22.02;63.80;94875.91;5032447;28;20822;-77
2022/08/03 00:04:32;;;;;;;2.87;2.73;;;;;;;22.02;64.25;94876.75;4997832;28;20473;-79
2022/08/03 00:06:59;;;;;;;2.17;2.07;;;;;;;21.96;63.98;94873.00;5032496;28;20453;-79
2022/08/03 00:09:26;;;;;;;2.67;2.50;;;;;;;21.99;64.49;94871.81;5032323;28;20450;-79
2022/08/03 00:11:54;;;;;;;2.47;2.37;;;;;;;22.15;64.47;94879.47;5032333;28;20992;-79
2022/08/03 00:14:21;;;;;;;2.33;2.10;;;;;;;22.16;63.95;94881.13;5032353;28;20454;-77
2022/08/03 00:16:47;;;;;;;3.30;2.47;;;;;;;22.28;64.81;94867.19;5032403;28;20455;-79
2022/08/03 00:19:14;;;;;;;2.13;1.93;;;;;;;22.17;63.18;94873.94;5032578;28;20458;-78
2022/08/03 00:21:41;;;;;;;2.37;2.27;;;;;;;22.22;64.07;94876.81;5032343;28;20490;-79
2022/08/03 00:24:08;;;;;;;2.80;2.60;;;;;;;22.28;63.35;94870.69;5032499;28;20465;-78
2022/08/03 00:26:35;;;;;;;4.27;2.17;;;;;;;22.27;64.10;94878.91;5032503;28;20449;-77
2022/08/03 00:29:03;;;;;;;2.60;2.40;;;;;;;22.34;64.29;94874.38;5032172;28;20804;-79
2022/08/03 00:31:30;;;;;;;2.40;2.20;;;;;;;22.51;63.84;94873.78;5032094;28;20465;-77
2022/08/03 00:33:57;;;;;;;3.70;3.13;;;;;;;22.56;63.44;94876.69;5029940;28;20442;-79
2022/08/03 00:36:23;;;;;;;2.20;2.10;;;;;;;22.68;63.85;94882.25;5033434;28;20442;-79
2022/08/03 00:38:50;;;;;;;2.20;1.93;;;;;;;22.85;62.39;94885.38;5036140;28;20450;-77
2022/08/03 00:41:17;;;;;;;1.90;1.80;;;;;;;22.91;62.99;94881.06;5035885;28;21019;-79
2022/08/03 00:43:46;;;;;;;4.20;2.13;;;;;;;22.99;62.32;94873.63;5035869;28;20446;-79
2022/08/03 00:46:14;;;;;;;2.90;2.70;;;;;;;23.05;61.86;94866.63;5036192;28;20453;-78
2022/08/03 00:48:41;;;;;;;5.20;2.50;;;;;;;23.15;61.96;94870.53;5001231;28;20458;-79
2022/08/03 00:51:08;;;;;;;3.00;2.50;;;;;;;23.20;61.98;94875.28;5035959;28;20439;-78
2022/08/03 00:53:36;;;;;;;2.37;2.20;;;;;;;23.26;61.55;94869.06;5035933;28;20450;-81
2022/08/03 00:56:03;;;;;;;4.53;2.43;;;;;;;23.29;61.17;94874.00;5035874;28;20454;-78
2022/08/03 00:58:30;;;;;;;2.17;2.07;;;;;;;23.30;60.67;94874.84;5035606;28;20454;-79
2022/08/03 01:00:56;;;;;;;2.40;2.10;;;;;;;23.27;61.32;94865.38;5035254;28;20493;-79
2022/08/03 01:03:25;;;;;;;2.70;2.50;;;;;;;23.19;60.57;94873.63;5035572;28;20449;-78
2022/08/03 01:06:00;;;;;;;2.20;2.10;;;;;;;23.22;62.26;94864.34;5035369;28;20446;-78
2022/08/03 01:08:37;;;;;;;2.23;2.13;;;;;;;23.11;61.21;94865.78;5035422;28;20870;-79
2022/08/03 01:11:10;;;;;;;2.87;2.57;;;;;;;23.11;61.58;94868.47;5035631;28;20446;-79
2022/08/03 01:13:45;;;;;;;2.60;2.20;;;;;;;23.07;61.12;94861.88;5035680;28;20514;-79
2022/08/03 01:16:18;;;;;;;2.60;2.40;;;;;;;22.99;61.38;94862.09;5035380;28;20488;-77
2022/08/03 01:18:52;;;;;;;2.50;2.30;;;;;;;22.91;61.56;94870.34;5035332;28;20447;-79
2022/08/03 01:21:29;;;;;;;2.23;2.10;;;;;;;22.87;62.19;94864.59;5035502;28;20590;-76
2022/08/03 01:24:05;;;;;;;3.90;2.43;;;;;;;22.92;63.43;94859.44;5035421;28;20446;-78
2022/08/03 01:27:03;;;;;;;2.10;2.00;;;;;;;22.92;61.98;94861.28;5001296;28;20458;-79
2022/08/03 01:29:47;;;;;;;2.77;2.40;;;;;;;22.85;64.02;94861.31;4993313;28;20532;-80
2022/08/03 01:32:19;;;;;;;2.30;2.20;;;;;;;22.86;64.69;94847.72;4993435;28;20468;-76
2022/08/03 01:34:51;;;;;;;2.87;2.60;;;;;;;22.98;63.86;94857.78;4993307;28;20444;-79
2022/08/03 01:37:24;;;;;;;3.20;2.90;;;;;;;23.03;63.78;94866.00;4993384;28;20448;-79
2022/08/03 01:39:54;;;;;;;2.33;2.13;;;;;;;23.06;65.19;94863.75;4993421;28;20452;-78
2022/08/03 01:42:22;;;;;;;2.37;2.27;;;;;;;23.02;63.21;94862.50;4976772;28;20495;-79
2022/08/03 01:44:53;;;;;;;9.53;2.80;;;;;;;23.00;65.57;94866.44;4976703;28;20459;-78
2022/08/03 01:47:22;;;;;;;2.70;2.50;;;;;;;23.02;64.33;94859.00;4992569;28;20481;-78
2022/08/03 01:49:51;;;;;;;5.97;3.00;;;;;;;23.04;63.53;94862.31;4960297;28;20460;-80
2022/08/03 01:52:20;;;;;;;2.53;2.30;;;;;;;23.02;64.83;94867.88;4993064;28;20549;-79
2022/08/03 01:54:49;;;;;;;2.40;2.20;;;;;;;23.06;65.70;94866.41;4992980;28;20623;-79
2022/08/03 01:57:17;;;;;;;3.27;2.57;;;;;;;23.07;66.51;94865.38;4993058;28;20452;-79
2022/08/03 01:59:47;;;;;;;2.57;2.37;;;;;;;23.05;65.87;94874.66;4976338;28;20476;-79
2022/08/03 02:02:17;;;;;;;2.87;2.57;;;;;;;23.06;65.31;94868.28;4959981;28;20484;-75
2022/08/03 02:04:46;;;;;;;2.53;2.33;;;;;;;23.07;64.40;94869.91;4992730;28;20452;-79
2022/08/03 02:07:15;;;;;;;3.90;2.53;;;;;;;23.02;63.09;94861.69;5024984;28;20447;-78
2022/08/03 02:09:45;;;;;;;2.90;2.47;;;;;;;23.06;65.11;94858.38;5034433;28;20442;-79
2022/08/03 02:12:13;;;;;;;5.90;2.47;;;;;;;23.07;63.80;94867.22;5034433;28;20442;-78
2022/08/03 02:14:41;;;;;;;2.33;2.20;;;;;;;23.02;63.12;94862.50;5034279;28;20451;-79
2022/08/03 02:17:10;;;;;;;3.40;2.40;;;;;;;23.00;62.79;94867.25;5034755;28;20446;-79
2022/08/03 02:19:39;;;;;;;3.50;2.20;;;;;;;23.01;65.26;94865.41;5048733;28;20449;-79
2022/08/03 02:22:10;;;;;;;2.30;2.20;;;;;;;23.05;66.22;94862.09;4999259;28;20505;-78
2022/08/03 02:24:37;;;;;;;2.30;2.17;;;;;;;23.06;64.62;94865.59;5034051;28;20450;-79
2022/08/03 02:27:07;;;;;;;4.00;2.50;;;;;;;23.01;63.90;94854.69;5034165;28;20541;-79
2022/08/03 02:29:37;;;;;;;2.63;2.43;;;;;;;22.86;62.73;94863.78;5033985;28;20454;-79
2022/08/03 02:32:07;;;;;;;2.50;2.30;;;;;;;22.73;63.66;94863.72;5033876;28;20459;-78
2022/08/03 02:34:35;;;;;;;2.97;2.77;;;;;;;22.54;63.01;94859.16;5033705;28;21023;-79
2022/08/03 02:37:06;;;;;;;4.40;2.47;;;;;;;22.48;64.54;94862.66;5034031;28;20442;-78
2022/08/03 02:39:36;;;;;;;2.27;2.17;;;;;;;22.42;63.25;94860.81;5033775;28;20454;-79
2022/08/03 02:42:06;;;;;;;2.33;2.23;;;;;;;22.30;63.66;94862.44;5034025;28;20497;-79
2022/08/03 02:44:35;;;;;;;2.50;2.30;;;;;;;22.17;64.29;94868.56;4999501;28;20450;-79
2022/08/03 02:47:06;;;;;;;2.80;2.50;;;;;;;22.13;65.32;94867.34;4998816;28;20435;-79
2022/08/03 02:49:35;;;;;;;2.63;2.43;;;;;;;22.11;64.29;94859.53;5047956;28;20435;-79
2022/08/03 02:52:09;;;;;;;2.83;2.63;;;;;;;22.08;65.18;94856.44;5033596;28;20447;-79
2022/08/03 02:54:38;;;;;;;3.20;2.70;;;;;;;22.07;64.54;94863.63;5033621;28;20472;-79
2022/08/03 02:57:08;;;;;;;2.77;2.57;;;;;;;22.09;66.05;94856.22;5033520;28;20446;-78
2022/08/03 02:59:37;;;;;;;3.00;2.80;;;;;;;22.01;65.30;94859.06;5032921;28;20540;-79
2022/08/03 03:02:04;;;;;;;4.10;2.43;;;;;;;21.98;65.58;94870.16;5033256;28;20493;-76
2022/08/03 03:04:31;;;;;;;4.83;2.60;;;;;;;22.02;65.80;94870.56;5033428;28;20454;-78
2022/08/03 03:06:59;;;;;;;2.87;2.50;;;;;;;22.04;66.24;94868.56;5033239;28;20482;-79
2022/08/03 03:09:27;;;;;;;2.90;2.70;;;;;;;22.00;66.17;94876.13;5033516;28;20471;-78
2022/08/03 03:11:56;;;;;;;2.87;2.67;;;;;;;22.10;65.55;94876.59;5033058;28;20826;-79
2022/08/03 03:14:24;;;;;;;2.90;2.70;;;;;;;22.11;66.48;94882.75;5033365;28;20451;-79
2022/08/03 03:16:52;;;;;;;3.33;3.13;;;;;;;22.17;65.96;94884.63;5033122;28;20493;-77
2022/08/03 03:19:21;;;;;;;2.60;2.50;;;;;;;22.21;66.35;94878.66;4998608;28;20933;-79
2022/08/03 03:21:48;;;;;;;3.47;2.30;;;;;;;22.31;66.01;94890.84;5032720;28;20899;-79
2022/08/03 03:24:16;;;;;;;2.90;2.70;;;;;;;22.42;65.62;94892.91;5032608;28;20933;-79
2022/08/03 03:26:45;;;;;;;4.70;2.70;;;;;;;22.54;67.20;94888.59;5032384;28;20455;-79
2022/08/03 03:29:12;;;;;;;2.60;2.40;;;;;;;22.60;66.06;94893.16;5032670;28;20803;-78
2022/08/03 03:31:39;;;;;;;3.13;2.83;;;;;;;22.68;65.84;94903.66;5032676;28;20451;-80
2022/08/03 03:34:06;;;;;;;3.10;2.90;;;;;;;22.54;64.43;94900.13;5032959;28;20474;-87
2022/08/03 03:36:33;;;;;;;3.37;3.17;;;;;;;22.30;63.81;94907.91;4999022;28;20453;-87
2022/08/03 03:39:00;;;;;;;2.77;2.57;;;;;;;21.91;65.09;94896.00;5033381;28;20454;-87
2022/08/03 03:41:27;;;;;;;4.03;2.90;;;;;;;21.59;66.41;94898.31;5033445;28;20446;-85
2022/08/03 03:43:55;;;;;;;10.20;3.23;;;;;;;21.34;67.38;94897.16;5033458;28;20553;-84
2022/08/03 03:46:22;;;;;;;5.20;3.43;;;;;;;21.18;68.93;94898.25;5032901;28;20863;-86
2022/08/03 03:48:49;;;;;;;3.47;3.17;;;;;;;21.10;69.28;94895.72;5032657;28;20442;-88
2022/08/03 03:51:16;;;;;;;3.53;3.23;;;;;;;21.11;70.97;94901.91;5031717;28;20463;-87
2022/08/03 03:53:55;;;;;;;3.67;3.47;;;;;;;21.06;69.83;94901.66;5032787;28;20964;-85
2022/08/03 03:56:22;;;;;;;3.37;3.07;;;;;;;21.07;69.86;94903.28;5032669;28;20450;-88
2022/08/03 03:58:49;;;;;;;3.30;3.00;;;;;;;21.26;69.01;94906.13;5031403;28;20442;-89
2022/08/03 04:01:17;;;;;;;5.00;2.80;;;;;;;21.59;68.46;94910.84;5034021;28;20828;-85
2022/08/03 04:03:44;;;;;;;6.00;2.83;;;;;;;21.92;66.66;94909.16;4997088;28;20481;-88
2022/08/03 04:11:43;;;;;;;3.50;2.80;;;;;;;21.98;65.20;94907.56;4972836;28;20428;-87
2022/08/03 04:14:13;;;;;;;4.50;2.50;;;;;;;22.11;65.03;94910.31;4959627;28;20448;-88
2022/08/03 04:16:46;;;;;;;2.53;2.43;;;;;;;22.44;63.76;94913.06;4976291;28;20460;-87
2022/08/03 04:19:17;;;;;;;3.53;2.63;;;;;;;22.85;62.56;94915.66;4975405;28;20449;-86
2022/08/03 04:21:49;;;;;;;2.80;2.60;;;;;;;23.25;61.21;94906.78;4975650;28;20477;-87
2022/08/03 04:24:18;;;;;;;3.43;3.13;;;;;;;23.56;59.84;94900.78;4975960;28;20515;-87
2022/08/03 04:26:47;;;;;;;3.10;2.80;;;;;;;23.77;59.01;94900.53;4975950;28;20537;-86
2022/08/03 04:29:15;;;;;;;2.93;2.73;;;;;;;24.02;58.20;94904.16;4975519;28;20445;-88
2022/08/03 04:31:46;;;;;;;4.20;2.53;;;;;;;24.27;57.70;94901.53;4975917;28;20524;-87
2022/08/03 04:34:13;;;;;;;3.30;3.03;;;;;;;24.54;56.47;94901.41;4943820;28;20452;-86
2022/08/03 04:36:50;;;;;;;3.00;2.80;;;;;;;24.73;56.34;94897.78;4976268;28;20453;-81
2022/08/03 04:39:24;;;;;;;3.40;3.20;;;;;;;24.95;55.53;94903.63;4975515;28;20445;-87
2022/08/03 04:41:54;;;;;;;6.77;3.60;;;;;;;25.17;55.29;94912.97;4974629;28;20496;-88
2022/08/03 04:44:23;;;;;;;2.40;2.20;;;;;;;25.30;55.04;94903.97;4974494;28;20473;-88
2022/08/03 04:46:53;;;;;;;3.07;2.77;;;;;;;25.54;54.27;94918.41;4974089;28;20441;-87
2022/08/03 04:49:21;;;;;;;8.40;3.10;;;;;;;25.75;53.85;94922.59;5016478;28;20438;-88
2022/08/03 04:51:49;;;;;;;4.30;3.23;;;;;;;25.99;54.42;94928.91;5035150;28;20451;-85
2022/08/03 04:54:16;;;;;;;5.97;3.13;;;;;;;26.29;53.29;94928.97;5034868;28;20442;-88
2022/08/03 04:56:44;;;;;;;5.77;3.67;;;;;;;26.47;52.87;94931.69;5035366;28;20473;-86
2022/08/03 04:59:10;;;;;;;3.53;3.23;;;;;;;26.68;52.12;94938.44;5035556;28;20567;-88
2022/08/03 05:01:39;;;;;;;4.50;3.23;;;;;;;26.25;53.05;94929.44;5017260;28;20453;-89
2022/08/03 05:04:07;;;;;;;6.27;3.60;;;;;;;26.19;55.36;94943.78;5036324;28;20453;-86
2022/08/03 05:06:34;;;;;;;18.13;4.87;;;;;;;25.77;56.42;94937.44;5036437;28;20450;-87
2022/08/03 05:09:01;;;;;;;4.20;3.40;;;;;;;25.07;56.15;94939.47;5036053;28;20435;-85
2022/08/03 05:11:27;;;;;;;6.40;3.63;;;;;;;24.75;57.98;94935.13;5036183;28;20438;-86
2022/08/03 05:13:55;;;;;;;6.07;4.07;;;;;;;24.98;58.66;94946.13;5035862;28;20454;-85
2022/08/03 05:16:24;;;;;;;9.80;4.70;;;;;;;25.36;57.82;94953.31;5035841;28;20898;-83
2022/08/03 05:18:50;;;;;;;21.23;4.20;;;;;;;25.41;57.41;94950.78;5035953;28;20493;-87
2022/08/03 05:21:19;;;;;;;9.00;4.10;;;;;;;25.64;58.11;94957.19;5036128;28;20496;-79
2022/08/03 05:23:45;;;;;;;9.20;4.67;;;;;;;25.88;56.69;94960.06;5035540;28;20473;-85
2022/08/03 05:26:12;;;;;;;9.13;4.00;;;;;;;26.19;54.80;94961.81;5036372;28;20445;-90
2022/08/03 05:28:39;;;;;;;6.90;4.20;;;;;;;26.28;54.38;94962.31;5035612;28;20454;-87
2022/08/03 05:31:06;;;;;;;6.80;3.87;;;;;;;26.40;53.80;94961.38;5036267;28;20451;-90
2022/08/03 05:33:33;;;;;;;16.97;4.60;;;;;;;26.59;52.76;94964.03;5035744;28;20430;-88
2022/08/03 05:36:00;;;;;;;7.80;4.90;;;;;;;26.64;51.88;94965.00;5034353;28;20466;-90
2022/08/03 05:38:28;;;;;;;10.03;5.83;;;;;;;26.60;51.80;94961.13;5035615;28;20513;-89
2022/08/03 05:40:55;;;;;;;6.07;5.17;;;;;;;26.53;51.44;94966.56;5050520;28;20468;-90
2022/08/03 05:43:22;;;;;;;7.80;5.30;;;;;;;26.83;51.55;94963.88;5035611;28;20494;-89
2022/08/03 05:45:48;;;;;;;6.60;5.73;;;;;;;27.06;50.82;94963.19;5035471;28;20450;-88
2022/08/03 05:48:15;;;;;;;6.10;5.60;;;;;;;27.25;49.95;94971.19;5034557;28;20446;-87
2022/08/03 05:50:42;;;;;;;7.60;4.63;;;;;;;27.40;49.68;94969.69;5034789;28;20461;-87
2022/08/03 05:53:09;;;;;;;6.40;5.00;;;;;;;27.50;49.63;94971.00;5030294;28;20548;-88
2022/08/03 05:56:18;;;;;;;5.50;4.40;;;;;;;27.75;49.45;94967.03;5037046;28;20447;-89
2022/08/03 05:58:47;;;;;;;6.47;4.70;;;;;;;27.69;49.00;94975.25;5001437;28;20472;-88
2022/08/03 06:01:13;;;;;;;5.63;4.50;;;;;;;27.93;48.88;94974.19;5006098;28;20535;-89
2022/08/03 06:03:40;;;;;;;5.60;5.00;;;;;;;28.05;47.92;94974.22;5010414;28;20479;-90
2022/08/03 06:06:07;;;;;;;5.33;3.87;;;;;;;28.34;47.22;94981.34;5011872;28;20451;-89
2022/08/03 06:08:34;;;;;;;6.07;4.43;;;;;;;28.60;47.37;94982.66;4949709;28;20444;-90
2022/08/03 06:11:01;;;;;;;8.53;5.00;;;;;;;28.57;46.65;94979.63;5011447;28;20855;-87
2022/08/03 06:13:28;;;;;;;6.63;4.50;;;;;;;28.51;46.89;94967.91;5011357;28;20454;-89
2022/08/03 06:15:56;;;;;;;4.27;3.87;;;;;;;28.69;46.57;94977.72;4977146;28;20450;-89
2022/08/03 06:18:23;;;;;;;5.17;4.03;;;;;;;28.76;47.13;94969.47;5012023;28;20447;-90
2022/08/03 06:20:50;;;;;;;4.20;3.80;;;;;;;29.03;46.76;94984.06;5011426;28;21035;-90
2022/08/03 06:23:17;;;;;;;4.03;3.63;;;;;;;29.21;46.28;94972.22;5011092;28;20525;-89
2022/08/03 06:25:44;;;;;;;5.63;3.30;;;;;;;28.68;47.16;94973.38;5013051;28;20450;-86
2022/08/03 06:28:13;;;;;;;8.30;4.20;;;;;;;28.62;47.20;94974.31;5013404;28;20471;-90
2022/08/03 06:30:40;;;;;;;4.57;4.17;;;;;;;28.52;48.53;94966.03;5012730;28;20486;-88
2022/08/03 06:33:09;;;;;;;4.23;3.90;;;;;;;28.66;48.09;94973.63;5012935;28;20506;-89
2022/08/03 06:35:35;;;;;;;8.37;3.97;;;;;;;28.72;48.10;94960.22;5027859;28;20925;-90
2022/08/03 06:38:02;;;;;;;5.00;3.80;;;;;;;28.91;47.49;94967.91;5034616;28;20516;-88
2022/08/03 06:40:30;;;;;;;3.87;3.53;;;;;;;29.09;46.85;94957.94;5034799;28;20516;-90
2022/08/03 06:42:57;;;;;;;5.63;3.37;;;;;;;29.34;46.53;94968.38;5034503;28;21012;-86
2022/08/03 06:45:25;;;;;;;6.83;4.63;;;;;;;29.10;46.28;94965.81;5034413;28;20450;-86
2022/08/03 06:48:01;;;;;;;4.30;3.90;;;;;;;29.32;46.95;94959.69;5034498;28;20455;-87
2022/08/03 06:50:29;;;;;;;5.00;4.13;;;;;;;29.63;47.26;94961.03;5034537;28;20446;-88
2022/08/03 06:52:56;;;;;;;3.90;3.50;;;;;;;29.85;45.29;94953.81;5034211;28;20438;-87
2022/08/03 06:55:23;;;;;;;4.03;3.67;;;;;;;30.03;43.81;94960.84;5034618;28;20454;-88
2022/08/03 06:57:50;;;;;;;4.83;4.20;;;;;;;29.80;43.60;94961.84;5034765;28;20462;-86
2022/08/03 07:00:17;;;;;;;6.37;3.90;;;;;;;29.92;44.86;94960.69;5034218;28;20839;-88
2022/08/03 07:02:44;;;;;;;11.33;4.10;;;;;;;29.70;43.97;94961.69;5034612;28;20478;-86
2022/08/03 07:05:12;;;;;;;4.00;3.27;;;;;;;29.62;44.40;94964.81;5034305;28;20451;-87
2022/08/03 07:07:40;;;;;;;4.23;3.83;;;;;;;29.60;44.75;94963.19;5034409;28;20509;-89
2022/08/03 07:10:10;;;;;;;5.60;4.07;;;;;;;29.68;44.14;94966.53;5034276;28;20451;-89
2022/08/03 07:12:37;;;;;;;3.87;3.40;;;;;;;29.84;44.56;94954.88;5014935;28;20443;-88
2022/08/03 07:15:05;;;;;;;8.17;4.13;;;;;;;30.01;44.95;94954.84;5014851;28;20923;-89
2022/08/03 07:17:33;;;;;;;13.40;4.17;;;;;;;29.78;44.04;94963.97;5014494;28;20460;-90
2022/08/03 07:20:02;;;;;;;4.73;4.23;;;;;;;29.68;46.33;94963.81;5015383;28;20459;-87
2022/08/03 07:22:29;;;;;;;4.13;3.83;;;;;;;29.47;44.75;94955.38;5014124;28;20446;-88
2022/08/03 07:24:58;;;;;;;8.77;3.93;;;;;;;29.57;44.96;94962.84;5014246;28;20550;-90
2022/08/03 07:27:28;;;;;;;5.40;4.07;;;;;;;29.75;44.84;94959.88;5014042;28;20447;-89
2022/08/03 07:29:55;;;;;;;5.77;4.27;;;;;;;30.00;45.15;94962.13;5014314;28;20455;-87
2022/08/03 07:32:21;;;;;;;8.50;3.77;;;;;;;30.01;44.10;94960.25;5014540;28;20476;-89
2022/08/03 07:34:48;;;;;;;6.40;3.80;;;;;;;29.94;44.14;94968.53;5014456;28;20447;-89
2022/08/03 07:37:15;;;;;;;4.63;3.57;;;;;;;30.11;43.70;94963.97;5014421;28;20802;-88
2022/08/03 07:39:42;;;;;;;4.50;3.70;;;;;;;30.04;43.31;94951.66;5014309;28;20475;-89
2022/08/03 07:42:10;;;;;;;6.37;4.03;;;;;;;30.08;43.56;94959.06;5014352;28;20452;-88
2022/08/03 07:44:38;;;;;;;6.03;3.97;;;;;;;29.90;42.81;94962.00;5013720;28;20486;-85
2022/08/03 07:47:05;;;;;;;5.33;4.83;;;;;;;30.13;43.06;94967.25;5014087;28;20451;-92
2022/08/03 07:49:31;;;;;;;5.30;4.33;;;;;;;30.38;44.30;94963.22;5013494;28;20435;-80
2022/08/03 07:54:43;;;;;;;6.90;4.13;;;;;;;30.55;41.68;94966.69;5013823;28;20443;-92
2022/08/03 07:57:11;;;;;;;8.83;5.33;;;;;;;30.59;42.33;94970.50;5013318;28;20505;-91
2022/08/03 07:59:38;;;;;;;10.33;5.10;;;;;;;30.63;41.59;94963.53;5014043;28;20479;-90
2022/08/03 08:02:07;;;;;;;10.13;4.10;;;;;;;30.49;42.04;94964.97;5014087;28;20938;-86
2022/08/03 08:04:33;;;;;;;6.83;5.33;;;;;;;30.47;41.10;94962.53;5014488;28;20491;-92
2022/08/03 08:07:00;;;;;;;5.87;4.43;;;;;;;30.49;40.75;94964.97;5015811;28;20435;-90
2022/08/03 08:09:27;;;;;;;9.50;4.70;;;;;;;30.69;41.91;94959.03;5043412;28;20447;-94
2022/08/03 08:11:54;;;;;;;12.23;4.70;;;;;;;30.89;40.11;94964.66;5036708;28;20449;-95
2022/08/03 08:14:22;;;;;;;8.37;4.70;;;;;;;31.00;40.39;94961.00;5035401;28;20450;-93
2022/08/03 08:16:49;;;;;;;6.80;4.87;;;;;;;31.24;39.86;94977.00;5034800;28;20442;-91
2022/08/03 08:19:16;;;;;;;10.53;5.03;;;;;;;31.40;38.66;94976.03;5032399;28;20497;-96
2022/08/03 08:21:43;;;;;;;4.60;4.20;;;;;;;31.25;38.74;94975.91;5015985;28;20479;-94
2022/08/03 08:24:10;;;;;;;10.57;5.07;;;;;;;31.25;39.86;94973.19;5015566;28;20533;-95
2022/08/03 08:26:37;;;;;;;6.73;4.33;;;;;;;31.11;40.71;94967.31;5014128;28;20447;-94
2022/08/03 08:29:05;;;;;;;9.60;4.00;;;;;;;31.09;39.79;94958.63;5014920;28;20466;-90
2022/08/03 08:31:33;;;;;;;11.80;4.80;;;;;;;31.04;40.69;94961.31;5029368;28;20478;-94
2022/08/03 08:34:04;;;;;;;6.33;4.53;;;;;;;30.94;40.74;94961.19;5015728;28;20451;-94
2022/08/03 08:36:32;;;;;;;5.90;4.57;;;;;;;30.92;39.36;94964.13;5015100;28;20494;-95
2022/08/03 08:38:59;;;;;;;6.30;4.20;;;;;;;30.88;39.60;94956.78;5014718;28;20483;-91
2022/08/03 08:41:28;;;;;;;6.33;4.40;;;;;;;30.92;39.71;94957.91;5014473;28;20472;-92
2022/08/03 08:43:55;;;;;;;6.07;4.13;;;;;;;30.99;39.75;94961.25;5014701;28;20491;-94
2022/08/03 08:46:22;;;;;;;6.40;3.40;;;;;;;31.20;39.32;94960.38;5014478;28;20567;-93
2022/08/03 08:48:52;;;;;;;15.87;3.93;;;;;;;31.38;39.68;94962.72;5014614;28;20463;-92
2022/08/03 08:51:20;;;;;;;12.83;3.90;;;;;;;31.62;39.11;94949.66;5014423;28;20454;-93
2022/08/03 08:53:51;;;;;;;4.53;3.87;;;;;;;31.83;39.08;94958.78;5014173;28;20510;-95
2022/08/03 08:56:20;;;;;;;8.43;3.77;;;;;;;31.97;37.70;94959.13;5014832;28;20454;-93
2022/08/03 08:58:51;;;;;;;7.20;3.63;;;;;;;31.98;37.56;94956.16;5016652;28;20447;-92
2022/08/03 09:01:19;;;;;;;9.10;3.97;;;;;;;31.97;37.70;94956.41;5016678;28;20443;-92
2022/08/03 09:03:46;;;;;;;6.03;3.50;;;;;;;31.88;37.71;94961.53;5016392;28;20533;-93
2022/08/03 09:06:14;;;;;;;5.50;3.57;;;;;;;31.95;37.04;94953.97;5016891;28;20469;-95
2022/08/03 09:08:41;;;;;;;4.80;4.10;;;;;;;31.93;36.20;94937.13;5018245;28;20467;-94
2022/08/03 09:11:10;;;;;;;4.17;3.83;;;;;;;31.85;37.57;94953.91;5019403;28;20505;-92
2022/08/03 09:13:37;;;;;;;4.30;3.80;;;;;;;31.65;36.89;94946.41;5021555;28;20965;-93
2022/08/03 09:16:12;;;;;;;6.53;4.27;;;;;;;31.47;37.14;94941.38;5016440;28;20478;-92
2022/08/03 09:18:40;;;;;;;4.53;4.00;;;;;;;31.39;36.79;94939.13;5017785;28;20446;-93
2022/08/03 09:21:16;;;;;;;4.00;3.70;;;;;;;31.28;38.18;94948.28;5033628;28;20447;-91
2022/08/03 09:23:48;;;;;;;4.50;4.10;;;;;;;31.34;37.49;94942.63;5018796;28;20493;-90
2022/08/03 09:26:25;;;;;;;7.53;4.50;;;;;;;31.39;37.69;94941.84;5036401;28;20816;-83
2022/08/03 09:28:56;;;;;;;5.83;3.90;;;;;;;31.32;38.33;94949.41;5036179;28;20439;-84
2022/08/03 09:31:33;;;;;;;4.50;3.60;;;;;;;31.36;36.21;94948.63;5035357;28;20999;-84
2022/08/03 09:34:05;;;;;;;3.10;2.90;;;;;;;31.33;35.06;94935.56;5035329;28;20454;-88
2022/08/03 09:36:38;;;;;;;4.30;3.43;;;;;;;31.39;37.25;94939.13;5036176;28;20454;-86
2022/08/03 09:39:09;;;;;;;4.90;3.70;;;;;;;31.48;37.05;94934.88;5035271;28;20458;-87
2022/08/03 09:41:37;;;;;;;4.83;3.70;;;;;;;31.60;37.06;94937.41;5035592;28;20520;-87
2022/08/03 09:44:04;;;;;;;7.77;3.70;;;;;;;31.63;37.82;94936.88;5035485;28;20501;-87
2022/08/03 09:46:32;;;;;;;5.57;3.93;;;;;;;31.58;36.59;94939.56;5017360;28;20438;-87
2022/08/03 09:49:12;;;;;;;4.60;4.20;;;;;;;31.47;36.72;94935.13;5035669;28;20794;-88
2022/08/03 09:51:40;;;;;;;6.10;4.70;;;;;;;31.25;38.48;94929.81;5035674;28;20442;-86
2022/08/03 09:54:08;;;;;;;7.43;4.10;;;;;;;31.15;37.61;94935.91;5035172;28;20447;-88
2022/08/03 09:56:42;;;;;;;11.63;4.27;;;;;;;31.13;37.95;94927.22;5035001;28;20427;-88
2022/08/03 09:59:10;;;;;;;4.47;4.07;;;;;;;31.20;38.65;94927.03;5035322;28;20474;-89
2022/08/03 10:01:40;;;;;;;7.00;4.40;;;;;;;30.73;38.52;94924.94;5034979;28;20451;-88
2022/08/03 10:04:12;;;;;;;5.23;3.77;;;;;;;30.93;37.96;94922.41;5034400;28;21030;-86
2022/08/03 10:06:40;;;;;;;6.53;3.97;;;;;;;31.00;37.95;94916.81;5035442;28;20477;-88
2022/08/03 10:09:10;;;;;;;7.87;4.30;;;;;;;30.99;37.34;94916.00;5035367;28;20447;-86
2022/08/03 10:11:38;;;;;;;4.40;3.10;;;;;;;30.93;37.35;94913.47;5035492;28;20443;-88
2022/08/03 10:14:06;;;;;;;3.80;3.50;;;;;;;30.85;37.78;94916.66;5035442;28;20446;-80
2022/08/03 10:16:34;;;;;;;3.70;3.20;;;;;;;30.80;37.48;94910.09;5035984;28;20438;-90
2022/08/03 10:19:01;;;;;;;3.93;3.57;;;;;;;30.72;36.81;94910.56;5035394;28;20524;-87
2022/08/03 10:21:31;;;;;;;4.20;3.90;;;;;;;30.60;37.66;94911.75;5001275;28;20464;-87
2022/08/03 10:24:02;;;;;;;4.10;3.80;;;;;;;30.48;37.99;94903.75;5034824;28;20478;-87
2022/08/03 10:26:32;;;;;;;3.33;3.13;;;;;;;30.56;37.79;94897.88;5034923;28;20446;-86
2022/08/03 10:29:02;;;;;;;3.43;3.23;;;;;;;30.62;38.49;94898.78;5035269;28;20806;-86
2022/08/03 10:31:35;;;;;;;8.30;3.97;;;;;;;30.63;38.38;94906.66;5035562;28;20904;-85
2022/08/03 10:34:05;;;;;;;4.57;4.27;;;;;;;30.54;38.96;94900.03;5035257;28;20450;-89
2022/08/03 10:36:35;;;;;;;4.33;3.93;;;;;;;30.58;40.19;94903.06;5034938;28;20478;-87
2022/08/03 10:39:04;;;;;;;6.20;3.70;;;;;;;30.49;38.50;94889.97;5035101;28;20453;-89
2022/08/03 10:41:35;;;;;;;3.73;3.43;;;;;;;30.55;38.73;94888.13;5035317;28;20438;-87
2022/08/03 10:44:05;;;;;;;3.57;3.30;;;;;;;30.49;38.40;94889.16;5034734;28;20495;-85
2022/08/03 10:46:34;;;;;;;7.10;3.33;;;;;;;30.50;40.20;94890.78;5034306;28;20445;-88
2022/08/03 10:49:02;;;;;;;7.10;3.77;;;;;;;30.36;37.39;94884.09;5034761;28;20442;-87
2022/08/03 10:51:30;;;;;;;4.27;3.87;;;;;;;30.29;39.41;94884.31;5034809;28;21003;-85
2022/08/03 10:53:58;;;;;;;3.97;3.67;;;;;;;30.31;37.91;94881.34;5034212;28;20454;-87
2022/08/03 10:59:59;;;;;;;4.17;3.87;;;;;;;30.11;39.24;94888.16;5034435;28;20604;-84
2022/08/03 11:02:59;;;;;;;4.57;4.17;;;;;;;30.07;39.99;94881.63;5034982;28;20454;-83
2022/08/03 11:05:29;;;;;;;4.13;3.80;;;;;;;30.28;39.21;94888.09;5034312;28;20489;-86
2022/08/03 11:08:20;;;;;;;4.00;3.47;;;;;;;30.35;38.79;94882.47;5034039;28;20451;-85
2022/08/03 11:10:47;;;;;;;5.30;4.00;;;;;;;30.37;38.96;94880.34;5033812;28;20450;-84
2022/08/03 11:13:17;;;;;;;2.70;2.50;;;;;;;30.32;39.08;94885.69;5034270;28;20835;-86
2022/08/03 11:15:45;;;;;;;3.80;3.50;;;;;;;30.12;39.08;94881.69;5033827;28;20447;-84
2022/08/03 11:18:14;;;;;;;5.10;4.60;;;;;;;30.08;40.42;94877.03;5031601;28;20957;-83
2022/08/03 11:20:45;;;;;;;9.90;3.07;;;;;;;30.24;39.79;94875.31;5033773;28;20467;-83
2022/08/03 11:23:12;;;;;;;8.20;3.30;;;;;;;30.34;39.11;94870.00;5033495;28;20949;-84
2022/08/03 11:26:11;;;;;;;4.17;3.90;;;;;;;30.49;40.20;94872.91;5033315;28;20956;-86
2022/08/03 11:28:40;;;;;;;5.00;4.60;;;;;;;30.62;44.25;94871.69;5034566;28;20458;-82
2022/08/03 11:31:48;;;;;;;3.63;3.30;;;;;;;30.68;38.52;94871.53;5033640;28;20439;-86
2022/08/03 11:34:16;;;;;;;4.00;3.70;;;;;;;30.40;38.11;94863.59;5033942;28;20454;-85
2022/08/03 11:37:23;;;;;;;4.93;4.53;;;;;;;30.65;40.31;94869.31;5033812;28;20451;-84
2022/08/03 11:39:55;;;;;;;6.40;3.70;;;;;;;30.43;39.40;94846.84;5033284;28;20442;-86
2022/08/03 11:42:45;;;;;;;4.10;3.80;;;;;;;30.20;40.86;94856.88;5033659;28;20840;-85
2022/08/03 11:45:14;;;;;;;3.90;2.90;;;;;;;29.98;40.41;94852.50;5032994;28;20486;-85
2022/08/03 11:47:43;;;;;;;3.50;3.30;;;;;;;29.93;40.89;94842.44;5034017;28;20473;-85
2022/08/03 11:50:11;;;;;;;3.53;3.23;;;;;;;29.90;39.05;94848.34;5033584;28;20482;-85
2022/08/03 11:52:41;;;;;;;6.20;2.90;;;;;;;30.12;42.27;94842.97;5033921;28;20489;-85
2022/08/03 11:55:16;;;;;;;3.50;3.20;;;;;;;30.30;40.80;94849.94;5033164;28;20493;-84
2022/08/03 11:57:45;;;;;;;4.00;3.70;;;;;;;30.29;40.47;94834.75;5033418;28;20512;-86